Time;durP1;ratioP1;P1;durP2;ratioP2;P2;SDS_P1;SDS_P2;PMS_P1;PMS_P2;Temp;Humidity;BMP_temperature;BMP_pressure;BME280_temperature;BME280_humidity;BME280_pressure;Samples;Min_cycle;Max_cycle;Signal;HPM_P1;HPM_P2
2023/09/02 00:01:28;;;;;;;5.35;4.25;;;;;;;;;;5034201;28;20041;-60
2023/09/02 00:03:54;;;;;;;6.00;4.63;;;;;;;;;;5016430;28;20025;-60
2023/09/02 00:06:19;;;;;;;6.43;4.68;;;;;;;;;;5033547;28;20080;-63
2023/09/02 00:08:44;;;;;;;5.90;4.15;;;;;;;;;;5015706;28;20469;-63
2023/09/02 00:11:10;;;;;;;6.15;4.50;;;;;;;;;;5033656;28;20025;-64
2023/09/02 00:13:36;;;;;;;5.13;4.25;;;;;;;;;;5033824;28;20068;-65
2023/09/02 00:16:02;;;;;;;6.97;4.45;;;;;;;;;;5034222;28;20040;-66
2023/09/02 00:18:28;;;;;;;5.68;4.50;;;;;;;;;;5016395;28;20072;-66
2023/09/02 00:20:54;;;;;;;10.70;4.75;;;;;;;;;;5033925;28;20496;-64
2023/09/02 00:23:19;;;;;;;5.03;4.22;;;;;;;;;;5033495;28;20034;-64
2023/09/02 00:25:44;;;;;;;6.70;4.55;;;;;;;;;;5016057;28;20029;-62
2023/09/02 00:28:10;;;;;;;6.57;4.50;;;;;;;;;;5033713;28;20061;-60
2023/09/02 00:30:35;;;;;;;5.93;4.40;;;;;;;;;;5033918;28;20112;-61
2023/09/02 00:33:02;;;;;;;5.75;4.45;;;;;;;;;;5016255;28;20369;-60
2023/09/02 00:35:27;;;;;;;5.25;4.40;;;;;;;;;;5016190;28;20036;-61
2023/09/02 00:37:53;;;;;;;6.35;4.50;;;;;;;;;;5034024;28;20033;-64
2023/09/02 00:40:19;;;;;;;5.35;4.57;;;;;;;;;;5034006;28;20021;-60
2023/09/02 00:42:45;;;;;;;5.22;4.05;;;;;;;;;;5033373;28;20026;-60
2023/09/02 00:45:10;;;;;;;6.93;4.10;;;;;;;;;;5033877;28;20025;-60
2023/09/02 00:47:36;;;;;;;4.70;4.30;;;;;;;;;;5016126;28;20432;-60
2023/09/02 00:50:02;;;;;;;5.05;4.28;;;;;;;;;;5033641;28;20045;-62
2023/09/02 00:52:27;;;;;;;4.68;4.28;;;;;;;;;;5016134;28;20453;-60
2023/09/02 00:54:53;;;;;;;4.25;3.85;;;;;;;;;;5019027;28;20041;-66
2023/09/02 00:57:19;;;;;;;5.00;3.97;;;;;;;;;;5037569;28;20451;-66
2023/09/02 00:59:44;;;;;;;4.18;3.78;;;;;;;;;;5037298;28;20084;-65
2023/09/02 01:02:10;;;;;;;5.35;3.95;;;;;;;;;;5019696;28;20040;-62
2023/09/02 01:04:35;;;;;;;4.85;4.38;;;;;;;;;;5019679;28;20029;-61
2023/09/02 01:07:02;;;;;;;4.63;3.88;;;;;;;;;;5037154;28;20065;-61
2023/09/02 01:09:28;;;;;;;4.78;4.28;;;;;;;;;;5037036;28;20049;-61
2023/09/02 01:11:54;;;;;;;6.88;4.32;;;;;;;;;;5037170;28;20051;-61
2023/09/02 01:14:19;;;;;;;5.68;4.10;;;;;;;;;;5037342;28;20096;-61
2023/09/02 01:16:45;;;;;;;4.90;4.40;;;;;;;;;;5037539;28;20041;-61
2023/09/02 01:19:17;;;;;;;6.35;4.35;;;;;;;;;;5037285;28;20044;-61
2023/09/02 01:21:49;;;;;;;5.75;4.35;;;;;;;;;;5019517;28;20038;-64
2023/09/02 01:24:33;;;;;;;5.80;4.97;;;;;;;;;;5019593;28;20105;-62
2023/09/02 01:27:06;;;;;;;8.93;4.45;;;;;;;;;;5037005;28;20240;-62
2023/09/02 01:29:35;;;;;;;7.35;4.85;;;;;;;;;;5019350;28;20117;-63
2023/09/02 01:32:01;;;;;;;8.48;4.88;;;;;;;;;;5019082;28;20017;-63
2023/09/02 01:34:29;;;;;;;7.20;4.97;;;;;;;;;;5036767;28;20116;-63
2023/09/02 01:36:57;;;;;;;7.97;4.82;;;;;;;;;;5002841;28;20029;-62
2023/09/02 01:39:24;;;;;;;7.13;4.18;;;;;;;;;;5036557;28;20040;-62
2023/09/02 01:41:51;;;;;;;5.50;4.25;;;;;;;;;;5036454;28;20033;-62
2023/09/02 01:44:16;;;;;;;5.80;4.35;;;;;;;;;;5036599;28;20033;-62
2023/09/02 01:46:42;;;;;;;6.25;4.25;;;;;;;;;;5019365;28;20037;-61
2023/09/02 01:49:08;;;;;;;6.47;3.97;;;;;;;;;;5018689;28;20026;-62
2023/09/02 01:51:33;;;;;;;8.27;4.78;;;;;;;;;;5002876;28;20033;-62
2023/09/02 01:53:59;;;;;;;6.93;4.88;;;;;;;;;;5036416;28;20029;-62
2023/09/02 01:56:24;;;;;;;5.65;4.72;;;;;;;;;;5036625;28;20025;-62
2023/09/02 01:58:50;;;;;;;6.40;4.40;;;;;;;;;;5018311;28;20061;-61
2023/09/02 02:01:16;;;;;;;7.40;5.47;;;;;;;;;;5018494;28;20047;-60
2023/09/02 02:03:48;;;;;;;6.65;4.95;;;;;;;;;;5018347;28;20026;-61
2023/09/02 02:06:14;;;;;;;7.45;4.35;;;;;;;;;;5001741;28;20040;-60
2023/09/02 02:08:39;;;;;;;7.15;4.50;;;;;;;;;;5018364;28;20041;-62
2023/09/02 02:11:06;;;;;;;5.68;4.18;;;;;;;;;;5036277;28;20501;-66
2023/09/02 02:13:31;;;;;;;7.25;3.88;;;;;;;;;;5018433;28;20136;-60
2023/09/02 02:15:56;;;;;;;6.78;4.32;;;;;;;;;;5018265;28;20130;-60
2023/09/02 02:18:22;;;;;;;5.93;4.35;;;;;;;;;;5018138;28;20465;-66
2023/09/02 02:20:54;;;;;;;8.45;4.38;;;;;;;;;;5035928;28;20116;-66
2023/09/02 02:23:19;;;;;;;6.03;4.15;;;;;;;;;;5018367;28;20033;-66
2023/09/02 02:25:44;;;;;;;6.15;4.28;;;;;;;;;;5035773;28;20045;-64
2023/09/02 02:28:10;;;;;;;5.88;4.50;;;;;;;;;;5035998;28;20037;-65
2023/09/02 02:30:35;;;;;;;6.97;4.20;;;;;;;;;;5036020;28;20079;-65
2023/09/02 02:33:01;;;;;;;4.47;3.75;;;;;;;;;;5017803;28;20029;-65
2023/09/02 02:35:31;;;;;;;5.43;4.03;;;;;;;;;;5018331;28;20036;-66
2023/09/02 02:37:59;;;;;;;7.55;4.85;;;;;;;;;;5017913;28;20103;-65
2023/09/02 02:40:24;;;;;;;6.50;4.82;;;;;;;;;;5035860;28;20029;-67
2023/09/02 02:42:50;;;;;;;5.55;4.30;;;;;;;;;;5035649;28;20530;-67
2023/09/02 02:45:15;;;;;;;6.50;4.75;;;;;;;;;;5035465;28;20449;-66
2023/09/02 02:47:41;;;;;;;7.18;4.68;;;;;;;;;;5035500;28;20036;-66
2023/09/02 02:50:06;;;;;;;8.25;5.00;;;;;;;;;;5035669;28;20034;-61
2023/09/02 02:52:33;;;;;;;6.63;4.53;;;;;;;;;;5017973;28;20428;-61
2023/09/02 02:54:58;;;;;;;8.95;5.90;;;;;;;;;;5035332;28;20038;-61
2023/09/02 02:57:24;;;;;;;7.75;4.93;;;;;;;;;;5017283;28;20164;-60
2023/09/02 02:59:52;;;;;;;6.50;4.53;;;;;;;;;;5035132;28;20053;-60
2023/09/02 03:02:18;;;;;;;8.68;5.32;;;;;;;;;;5017597;28;20071;-62
2023/09/02 03:04:48;;;;;;;11.50;5.28;;;;;;;;;;5035147;28;20057;-61
2023/09/02 03:07:14;;;;;;;11.30;5.28;;;;;;;;;;5014921;28;20065;-67
2023/09/02 03:09:42;;;;;;;6.60;4.85;;;;;;;;;;5017468;28;20048;-66
2023/09/02 03:12:07;;;;;;;7.80;5.57;;;;;;;;;;5001103;28;20374;-65
2023/09/02 03:14:33;;;;;;;7.32;5.55;;;;;;;;;;5001010;28;20029;-66
2023/09/02 03:16:59;;;;;;;7.00;5.22;;;;;;;;;;5016474;28;20021;-67
2023/09/02 03:19:25;;;;;;;10.52;5.75;;;;;;;;;;5034843;28;20064;-66
2023/09/02 03:21:50;;;;;;;6.57;5.15;;;;;;;;;;5017110;28;20113;-67
2023/09/02 03:24:16;;;;;;;7.75;5.32;;;;;;;;;;5034871;28;20049;-67
2023/09/02 03:26:41;;;;;;;7.70;5.05;;;;;;;;;;5034839;28;20032;-61
2023/09/02 03:29:06;;;;;;;6.13;5.25;;;;;;;;;;5034778;28;20075;-59
2023/09/02 03:31:34;;;;;;;7.80;5.22;;;;;;;;;;5016604;28;20374;-62
2023/09/02 03:34:02;;;;;;;8.50;6.15;;;;;;;;;;5016945;28;20029;-63
2023/09/02 03:36:28;;;;;;;10.32;6.25;;;;;;;;;;5017206;28;20026;-62
2023/09/02 03:38:53;;;;;;;6.13;5.22;;;;;;;;;;5034216;28;20038;-59
2023/09/02 03:41:20;;;;;;;6.00;4.32;;;;;;;;;;5016878;28;20075;-60
2023/09/02 03:43:46;;;;;;;6.68;4.40;;;;;;;;;;5034411;28;20100;-65
2023/09/02 03:46:12;;;;;;;7.60;5.18;;;;;;;;;;5016534;28;20193;-64
2023/09/02 03:48:37;;;;;;;6.38;4.30;;;;;;;;;;5016991;28;20026;-64
2023/09/02 03:51:16;;;;;;;5.40;4.40;;;;;;;;;;5016654;28;20421;-65
2023/09/02 03:53:46;;;;;;;5.38;4.80;;;;;;;;;;5016002;28;20086;-60
2023/09/02 03:56:17;;;;;;;7.03;4.88;;;;;;;;;;5015770;28;20531;-60
2023/09/02 03:58:43;;;;;;;7.22;4.70;;;;;;;;;;5016077;28;20546;-60
2023/09/02 04:01:11;;;;;;;6.07;4.97;;;;;;;;;;5016504;28;20108;-60
2023/09/02 04:03:37;;;;;;;5.57;4.22;;;;;;;;;;5016559;28;20033;-60
2023/09/02 04:06:05;;;;;;;5.55;4.63;;;;;;;;;;5004161;28;20041;-61
2023/09/02 04:08:34;;;;;;;5.05;4.65;;;;;;;;;;5030431;23;20058;-66
2023/09/02 04:11:00;;;;;;;5.20;4.60;;;;;;;;;;5038670;23;20219;-66
2023/09/02 04:13:25;;;;;;;4.63;3.95;;;;;;;;;;5033575;28;20104;-61
2023/09/02 04:15:57;;;;;;;3.95;3.75;;;;;;;;;;5028878;23;20432;-60
2023/09/02 04:18:24;;;;;;;4.93;4.53;;;;;;;;;;5036206;23;20060;-66
2023/09/02 04:21:03;;;;;;;6.78;4.60;;;;;;;;;;5028558;23;20148;-67
2023/09/02 04:23:29;;;;;;;3.63;3.40;;;;;;;;;;4994958;28;20046;-61
2023/09/02 04:25:57;;;;;;;3.47;3.17;;;;;;;;;;4996351;28;20385;-60
2023/09/02 04:28:24;;;;;;;3.33;3.03;;;;;;;;;;5000921;28;20112;-60
2023/09/02 04:30:53;;;;;;;3.15;2.95;;;;;;;;;;5002552;28;20061;-61
2023/09/02 04:33:21;;;;;;;4.40;3.20;;;;;;;;;;5020533;28;20076;-60
2023/09/02 04:35:47;;;;;;;3.28;3.08;;;;;;;;;;5002580;28;20053;-60
2023/09/02 04:38:14;;;;;;;3.35;3.05;;;;;;;;;;5003100;28;20393;-60
2023/09/02 04:40:43;;;;;;;3.45;3.22;;;;;;;;;;4986662;28;20026;-62
2023/09/02 04:43:09;;;;;;;3.30;3.00;;;;;;;;;;5020470;28;20478;-62
2023/09/02 04:45:35;;;;;;;4.03;3.67;;;;;;;;;;5020056;28;20389;-61
2023/09/02 04:48:03;;;;;;;3.58;3.22;;;;;;;;;;5002387;28;20033;-61
2023/09/02 04:50:31;;;;;;;3.53;3.22;;;;;;;;;;5002348;28;20025;-60
2023/09/02 04:52:57;;;;;;;3.25;3.05;;;;;;;;;;5002351;28;20033;-61
2023/09/02 04:55:26;;;;;;;4.22;3.33;;;;;;;;;;4986151;28;20118;-61
2023/09/02 04:57:51;;;;;;;3.75;3.55;;;;;;;;;;5002411;28;20088;-61
2023/09/02 05:00:17;;;;;;;4.03;3.72;;;;;;;;;;5002468;28;20033;-60
2023/09/02 05:02:44;;;;;;;3.90;3.67;;;;;;;;;;5019908;28;20041;-61
2023/09/02 05:05:10;;;;;;;4.07;3.72;;;;;;;;;;5002445;28;20029;-60
2023/09/02 05:07:35;;;;;;;4.68;4.20;;;;;;;;;;5001599;28;20029;-60
2023/09/02 05:10:01;;;;;;;4.30;3.97;;;;;;;;;;5018554;28;20022;-60
2023/09/02 05:12:27;;;;;;;3.78;3.55;;;;;;;;;;5000293;28;20548;-61
2023/09/02 05:14:52;;;;;;;4.03;3.67;;;;;;;;;;4983940;28;20021;-60
2023/09/02 05:17:18;;;;;;;4.50;4.10;;;;;;;;;;5000162;28;20029;-60
2023/09/02 05:19:43;;;;;;;4.20;3.88;;;;;;;;;;5000235;28;20477;-60
2023/09/02 05:22:09;;;;;;;3.95;3.65;;;;;;;;;;5000063;28;20535;-60
2023/09/02 05:24:35;;;;;;;3.83;3.63;;;;;;;;;;5000588;28;20029;-60
2023/09/02 05:27:00;;;;;;;4.70;4.13;;;;;;;;;;5000739;28;20392;-60
2023/09/02 05:29:25;;;;;;;5.63;3.88;;;;;;;;;;5019491;28;20026;-59
2023/09/02 05:31:51;;;;;;;4.97;4.13;;;;;;;;;;5019987;28;20052;-61
2023/09/02 05:34:16;;;;;;;4.05;3.75;;;;;;;;;;5002899;28;20026;-60
2023/09/02 05:36:42;;;;;;;4.32;3.97;;;;;;;;;;5019609;28;20142;-60
2023/09/02 05:39:07;;;;;;;4.70;4.30;;;;;;;;;;5000505;28;20049;-60
2023/09/02 05:41:33;;;;;;;5.07;4.70;;;;;;;;;;5016509;28;20029;-60
2023/09/02 05:43:59;;;;;;;5.10;4.40;;;;;;;;;;5016755;28;20022;-60
2023/09/02 05:46:24;;;;;;;4.70;4.28;;;;;;;;;;4998954;28;20113;-61
2023/09/02 05:48:49;;;;;;;6.13;4.65;;;;;;;;;;4999344;28;20029;-60
2023/09/02 05:51:15;;;;;;;4.55;4.22;;;;;;;;;;5016613;28;20493;-60
2023/09/02 05:53:40;;;;;;;4.35;3.97;;;;;;;;;;4998648;28;20034;-60
2023/09/02 05:56:05;;;;;;;4.30;3.90;;;;;;;;;;5016697;28;20049;-60
2023/09/02 05:58:31;;;;;;;5.68;4.57;;;;;;;;;;5016181;28;20022;-60
2023/09/02 06:01:02;;;;;;;5.00;4.53;;;;;;;;;;5016015;28;20034;-60
2023/09/02 06:03:27;;;;;;;4.80;4.38;;;;;;;;;;5016231;28;20026;-61
2023/09/02 06:05:52;;;;;;;4.38;3.97;;;;;;;;;;5015974;28;20121;-61
2023/09/02 06:08:18;;;;;;;4.15;3.80;;;;;;;;;;5016114;28;20037;-60
2023/09/02 06:10:43;;;;;;;4.00;3.70;;;;;;;;;;4999050;28;20035;-60
2023/09/02 06:13:09;;;;;;;5.63;3.97;;;;;;;;;;4997709;28;20029;-61
2023/09/02 06:15:34;;;;;;;4.63;3.83;;;;;;;;;;5015586;28;20057;-60
2023/09/02 06:18:00;;;;;;;3.28;2.97;;;;;;;;;;4997559;28;20409;-60
2023/09/02 06:20:26;;;;;;;3.00;2.70;;;;;;;;;;5015443;28;20037;-60
2023/09/02 06:22:52;;;;;;;2.72;2.63;;;;;;;;;;5016278;28;20076;-61
2023/09/02 06:25:18;;;;;;;2.83;2.67;;;;;;;;;;5016011;28;20126;-60
2023/09/02 06:27:43;;;;;;;3.28;3.03;;;;;;;;;;5016041;28;20018;-60
2023/09/02 06:30:09;;;;;;;3.20;3.00;;;;;;;;;;5015717;28;20026;-61
2023/09/02 06:32:34;;;;;;;3.08;2.78;;;;;;;;;;5015610;28;20454;-60
2023/09/02 06:35:00;;;;;;;2.88;2.67;;;;;;;;;;4997793;28;20026;-60
2023/09/02 06:37:28;;;;;;;2.58;2.45;;;;;;;;;;5015488;28;20030;-62
2023/09/02 06:39:54;;;;;;;2.78;2.58;;;;;;;;;;5015256;28;20021;-62
2023/09/02 06:42:19;;;;;;;2.80;2.63;;;;;;;;;;4998250;28;20022;-62
2023/09/02 06:44:47;;;;;;;2.92;2.22;;;;;;;;;;5015251;28;20096;-62
2023/09/02 06:47:15;;;;;;;2.50;2.30;;;;;;;;;;4997678;28;20018;-62
2023/09/02 06:49:40;;;;;;;2.50;2.28;;;;;;;;;;5015336;28;20036;-61
2023/09/02 06:52:06;;;;;;;2.83;2.15;;;;;;;;;;5013694;28;20025;-61
2023/09/02 06:54:31;;;;;;;2.40;2.20;;;;;;;;;;5015046;28;20492;-61
2023/09/02 06:56:56;;;;;;;2.45;2.25;;;;;;;;;;4997514;28;20045;-61
2023/09/02 06:59:25;;;;;;;2.15;1.95;;;;;;;;;;5014006;28;20104;-62
2023/09/02 07:01:50;;;;;;;1.77;1.67;;;;;;;;;;5014707;28;20034;-61
2023/09/02 07:04:16;;;;;;;1.88;1.75;;;;;;;;;;5014665;28;20080;-62
2023/09/02 07:06:41;;;;;;;1.63;1.52;;;;;;;;;;5014705;28;20367;-62
2023/09/02 07:09:06;;;;;;;1.85;1.75;;;;;;;;;;5014758;28;20465;-62
2023/09/02 07:11:32;;;;;;;1.88;1.77;;;;;;;;;;4996805;28;20022;-62
2023/09/02 07:13:57;;;;;;;2.28;2.10;;;;;;;;;;5013548;28;20104;-62
2023/09/02 07:16:23;;;;;;;2.42;2.22;;;;;;;;;;5013068;28;20416;-62
2023/09/02 07:18:48;;;;;;;2.20;1.95;;;;;;;;;;5013340;28;20024;-62
2023/09/02 07:21:14;;;;;;;2.40;2.15;;;;;;;;;;4995573;28;20489;-62
2023/09/02 07:23:39;;;;;;;2.17;1.98;;;;;;;;;;5012969;28;20485;-62
2023/09/02 07:26:04;;;;;;;2.15;2.05;;;;;;;;;;5012818;28;20030;-62
2023/09/02 07:28:30;;;;;;;2.35;2.25;;;;;;;;;;5013630;28;20473;-62
2023/09/02 07:30:58;;;;;;;2.10;2.00;;;;;;;;;;5013893;28;20026;-62
2023/09/02 07:33:24;;;;;;;2.10;1.90;;;;;;;;;;4996151;28;20049;-62
2023/09/02 07:35:49;;;;;;;2.05;1.95;;;;;;;;;;5013372;28;20385;-62
2023/09/02 07:38:14;;;;;;;2.13;1.92;;;;;;;;;;5013586;28;20032;-62
2023/09/02 07:40:41;;;;;;;1.80;1.70;;;;;;;;;;4995366;28;20041;-62
2023/09/02 07:43:06;;;;;;;2.45;1.77;;;;;;;;;;5013623;28;20041;-62
2023/09/02 07:45:32;;;;;;;3.40;1.98;;;;;;;;;;4996211;28;20038;-62
2023/09/02 07:47:57;;;;;;;1.92;1.83;;;;;;;;;;5013803;28;20021;-62
2023/09/02 07:50:22;;;;;;;1.65;1.55;;;;;;;;;;4995719;28;20034;-62
2023/09/02 07:52:48;;;;;;;2.10;1.90;;;;;;;;;;5014448;28;20116;-62
2023/09/02 07:55:14;;;;;;;1.70;1.60;;;;;;;;;;5014549;28;20041;-62
2023/09/02 07:57:39;;;;;;;1.50;1.38;;;;;;;;;;5014395;28;20029;-62
2023/09/02 08:00:05;;;;;;;1.80;1.70;;;;;;;;;;5014046;28;20076;-62
2023/09/02 08:02:37;;;;;;;1.60;1.50;;;;;;;;;;5013470;28;20058;-68
2023/09/02 08:05:02;;;;;;;1.90;1.60;;;;;;;;;;5014124;28;20084;-68
2023/09/02 08:07:30;;;;;;;1.63;1.45;;;;;;;;;;5013902;28;20034;-62
2023/09/02 08:09:56;;;;;;;1.58;1.48;;;;;;;;;;4996384;28;20041;-63
2023/09/02 08:12:21;;;;;;;1.55;1.45;;;;;;;;;;4996176;28;20030;-66
2023/09/02 08:14:46;;;;;;;1.48;1.40;;;;;;;;;;5014036;28;20469;-64
2023/09/02 08:17:12;;;;;;;1.52;1.42;;;;;;;;;;5013930;28;20475;-64
2023/09/02 08:19:37;;;;;;;2.15;2.00;;;;;;;;;;5014149;28;20034;-64
2023/09/02 08:22:03;;;;;;;1.50;1.40;;;;;;;;;;5013537;28;20120;-63
2023/09/02 08:24:28;;;;;;;1.48;1.38;;;;;;;;;;5014017;28;20041;-63
2023/09/02 08:26:54;;;;;;;1.60;1.50;;;;;;;;;;5013636;28;20034;-63
2023/09/02 08:29:19;;;;;;;1.38;1.27;;;;;;;;;;5014313;28;20042;-63
2023/09/02 08:31:45;;;;;;;1.30;1.20;;;;;;;;;;5014354;28;20041;-63
2023/09/02 08:34:11;;;;;;;1.40;1.30;;;;;;;;;;5013965;28;20091;-63
2023/09/02 08:36:36;;;;;;;1.08;1.00;;;;;;;;;;4996194;28;20040;-63
2023/09/02 08:39:02;;;;;;;1.40;1.30;;;;;;;;;;4995530;28;20029;-63
2023/09/02 08:41:30;;;;;;;1.52;1.30;;;;;;;;;;5013800;28;20036;-63
2023/09/02 08:44:00;;;;;;;3.75;1.50;;;;;;;;;;4995049;28;20021;-63
2023/09/02 08:46:29;;;;;;;2.35;1.20;;;;;;;;;;4994624;28;20457;-62
2023/09/02 08:48:57;;;;;;;1.33;1.30;;;;;;;;;;5012525;28;20058;-63
2023/09/02 08:51:23;;;;;;;1.10;1.10;;;;;;;;;;5012843;28;20018;-63
2023/09/02 08:53:50;;;;;;;1.00;1.00;;;;;;;;;;5013489;28;20026;-63
2023/09/02 08:56:15;;;;;;;1.30;1.25;;;;;;;;;;5013356;28;20072;-63
2023/09/02 08:58:41;;;;;;;1.30;1.20;;;;;;;;;;4996398;28;20458;-63
2023/09/02 09:01:07;;;;;;;2.15;1.33;;;;;;;;;;5013453;28;20036;-63
2023/09/02 09:03:33;;;;;;;1.33;1.23;;;;;;;;;;5013882;28;20034;-63
2023/09/02 09:05:59;;;;;;;1.48;1.38;;;;;;;;;;4996486;28;20037;-63
2023/09/02 09:08:25;;;;;;;1.50;1.40;;;;;;;;;;4996389;28;20060;-63
2023/09/02 09:10:51;;;;;;;2.45;1.35;;;;;;;;;;4996202;28;20030;-63
2023/09/02 09:13:17;;;;;;;1.38;1.27;;;;;;;;;;5013366;28;20160;-63
2023/09/02 09:15:43;;;;;;;0.98;0.98;;;;;;;;;;4998945;28;20030;-63
2023/09/02 09:18:11;;;;;;;1.17;1.08;;;;;;;;;;5017265;28;20115;-63
2023/09/02 09:20:37;;;;;;;1.30;1.20;;;;;;;;;;5017318;28;20034;-63
2023/09/02 09:23:06;;;;;;;1.20;1.10;;;;;;;;;;5016748;28;20057;-63
2023/09/02 09:25:32;;;;;;;1.30;1.20;;;;;;;;;;5016858;28;20037;-63
2023/09/02 09:28:07;;;;;;;1.52;1.40;;;;;;;;;;5016792;28;20101;-63
2023/09/02 09:30:32;;;;;;;1.30;1.20;;;;;;;;;;5016696;28;20042;-63
2023/09/02 09:33:00;;;;;;;1.15;1.05;;;;;;;;;;5016926;28;20022;-63
2023/09/02 09:35:25;;;;;;;1.50;1.40;;;;;;;;;;5016804;28;20040;-63
2023/09/02 09:37:52;;;;;;;1.20;1.20;;;;;;;;;;5016672;28;20474;-63
2023/09/02 09:40:27;;;;;;;1.70;1.55;;;;;;;;;;5017214;28;20034;-63
2023/09/02 09:42:52;;;;;;;1.33;1.20;;;;;;;;;;5016992;28;20118;-63
2023/09/02 09:45:18;;;;;;;1.30;1.20;;;;;;;;;;4999024;28;20452;-63
2023/09/02 09:47:45;;;;;;;1.45;1.35;;;;;;;;;;5016794;28;20036;-64
2023/09/02 09:50:31;;;;;;;1.70;1.60;;;;;;;;;;5016752;28;20033;-63
2023/09/02 09:52:59;;;;;;;1.50;1.40;;;;;;;;;;4997002;28;20128;-63
2023/09/02 09:55:25;;;;;;;2.05;1.27;;;;;;;;;;5016630;28;20034;-63
2023/09/02 09:57:54;;;;;;;2.33;1.35;;;;;;;;;;5016924;28;20026;-63
2023/09/02 10:00:20;;;;;;;2.85;1.65;;;;;;;;;;4998803;28;20377;-63
2023/09/02 10:02:55;;;;;;;1.85;1.75;;;;;;;;;;5015527;28;20033;-62
2023/09/02 10:05:30;;;;;;;1.80;1.70;;;;;;;;;;5015374;28;20120;-63
2023/09/02 10:08:00;;;;;;;2.33;2.13;;;;;;;;;;5014818;28;20021;-62
2023/09/02 10:10:32;;;;;;;2.20;2.00;;;;;;;;;;5015783;28;20026;-62
2023/09/02 10:12:58;;;;;;;2.70;2.50;;;;;;;;;;5015705;28;20072;-62
2023/09/02 10:15:27;;;;;;;2.13;2.03;;;;;;;;;;4997830;28;20108;-63
2023/09/02 10:17:59;;;;;;;2.67;2.28;;;;;;;;;;5015712;28;20092;-63
2023/09/02 10:20:29;;;;;;;2.47;2.33;;;;;;;;;;4997685;28;20033;-63
2023/09/02 10:23:03;;;;;;;3.40;1.95;;;;;;;;;;5015069;28;20072;-63
2023/09/02 10:25:29;;;;;;;1.92;1.83;;;;;;;;;;5015259;28;20600;-63
2023/09/02 10:28:04;;;;;;;2.38;2.17;;;;;;;;;;4980996;28;20114;-63
2023/09/02 10:30:42;;;;;;;1.63;1.52;;;;;;;;;;5015372;28;20030;-63
2023/09/02 10:33:20;;;;;;;1.50;1.40;;;;;;;;;;5015690;28;20038;-63
2023/09/02 10:35:50;;;;;;;1.10;1.10;;;;;;;;;;4998129;28;20029;-63
2023/09/02 10:38:17;;;;;;;1.30;1.20;;;;;;;;;;5016113;28;20033;-63
2023/09/02 10:40:43;;;;;;;1.08;1.08;;;;;;;;;;5015766;28;20029;-63
2023/09/02 10:43:09;;;;;;;1.23;1.23;;;;;;;;;;5015917;28;20121;-63
2023/09/02 10:45:36;;;;;;;1.40;1.40;;;;;;;;;;5015852;28;20033;-63
2023/09/02 10:48:02;;;;;;;1.10;1.10;;;;;;;;;;4997503;28;20046;-63
2023/09/02 10:50:29;;;;;;;1.35;1.25;;;;;;;;;;5014469;28;20486;-63
2023/09/02 10:52:54;;;;;;;1.50;1.40;;;;;;;;;;5014330;28;20030;-63
2023/09/02 10:55:20;;;;;;;1.50;1.40;;;;;;;;;;5014656;28;20372;-63
2023/09/02 10:57:56;;;;;;;1.08;1.08;;;;;;;;;;4997369;28;20076;-63
2023/09/02 11:00:23;;;;;;;1.05;1.05;;;;;;;;;;5014527;28;20405;-63
2023/09/02 11:02:52;;;;;;;1.20;1.17;;;;;;;;;;5014387;28;20061;-64
2023/09/02 11:05:18;;;;;;;1.70;1.27;;;;;;;;;;4996762;28;20474;-64
2023/09/02 11:07:43;;;;;;;1.20;1.20;;;;;;;;;;5014667;28;20026;-64
2023/09/02 11:10:09;;;;;;;0.77;0.77;;;;;;;;;;5014686;28;20038;-64
2023/09/02 11:12:55;;;;;;;1.63;1.13;;;;;;;;;;5014254;28;20045;-64
2023/09/02 11:15:20;;;;;;;1.10;1.00;;;;;;;;;;5014486;28;20366;-64
2023/09/02 11:17:45;;;;;;;2.00;0.85;;;;;;;;;;5014230;28;20025;-64
2023/09/02 11:20:11;;;;;;;0.98;0.98;;;;;;;;;;4996899;28;20061;-64
2023/09/02 11:22:57;;;;;;;1.05;1.05;;;;;;;;;;5013815;28;20073;-65
2023/09/02 11:25:26;;;;;;;2.40;1.10;;;;;;;;;;5014233;28;20121;-64
2023/09/02 11:27:52;;;;;;;1.40;1.30;;;;;;;;;;5014304;28;20504;-64
2023/09/02 11:30:18;;;;;;;2.67;1.10;;;;;;;;;;5014019;28;20540;-64
2023/09/02 11:32:44;;;;;;;1.10;1.10;;;;;;;;;;4996743;28;20038;-64
2023/09/02 11:35:14;;;;;;;1.17;1.00;;;;;;;;;;5013788;28;20594;-64
2023/09/02 11:37:40;;;;;;;;;;;;;;;;;;5013895;28;20108;-64
2023/09/02 11:40:18;;;;;;;1.40;1.27;;;;;;;;;;5014159;28;19941;-64
2023/09/02 11:42:50;;;;;;;1.33;1.10;;;;;;;;;;5013223;28;20034;-64
2023/09/02 11:45:16;;;;;;;1.40;1.30;;;;;;;;;;4996428;28;20068;-65
2023/09/02 11:47:42;;;;;;;1.27;1.20;;;;;;;;;;5014033;28;20077;-65
2023/09/02 11:50:10;;;;;;;1.35;1.25;;;;;;;;;;5012298;28;20033;-65
2023/09/02 11:52:36;;;;;;;1.70;1.70;;;;;;;;;;5011799;28;20049;-64
2023/09/02 11:55:07;;;;;;;2.00;1.65;;;;;;;;;;5012142;28;20103;-64
2023/09/02 11:57:32;;;;;;;1.75;1.65;;;;;;;;;;5010525;28;20049;-65
2023/09/02 11:59:57;;;;;;;1.90;1.70;;;;;;;;;;4994451;28;20434;-64
2023/09/02 12:02:25;;;;;;;1.90;1.80;;;;;;;;;;5011728;28;20085;-64
2023/09/02 12:04:50;;;;;;;4.03;1.90;;;;;;;;;;5012565;28;20450;-64
2023/09/02 12:07:17;;;;;;;2.55;2.30;;;;;;;;;;4994499;28;20040;-64
2023/09/02 12:09:42;;;;;;;1.90;1.80;;;;;;;;;;5012039;28;20025;-65
2023/09/02 12:12:08;;;;;;;2.13;1.92;;;;;;;;;;5012716;28;20517;-64
2023/09/02 12:14:35;;;;;;;2.50;2.40;;;;;;;;;;5012332;28;20038;-64
2023/09/02 12:17:01;;;;;;;2.53;2.42;;;;;;;;;;4994557;28;20100;-64
2023/09/02 12:19:26;;;;;;;1.85;1.75;;;;;;;;;;5012360;28;20037;-65
2023/09/02 12:21:52;;;;;;;2.45;2.35;;;;;;;;;;5011657;28;20054;-64
2023/09/02 12:24:18;;;;;;;1.77;1.67;;;;;;;;;;5012508;28;20034;-64
2023/09/02 12:26:50;;;;;;;2.10;2.00;;;;;;;;;;5012141;28;20026;-64
2023/09/02 12:29:16;;;;;;;2.00;1.90;;;;;;;;;;5012833;28;20033;-64
2023/09/02 12:31:44;;;;;;;1.88;1.85;;;;;;;;;;5012921;28;20126;-64
2023/09/02 12:34:10;;;;;;;1.80;1.70;;;;;;;;;;5013057;28;20041;-64
2023/09/02 12:36:35;;;;;;;1.98;1.85;;;;;;;;;;4995425;28;20038;-64
2023/09/02 12:39:01;;;;;;;1.75;1.65;;;;;;;;;;5013113;28;20022;-64
2023/09/02 12:41:39;;;;;;;2.33;1.85;;;;;;;;;;5013240;28;20079;-64
2023/09/02 12:44:11;;;;;;;1.27;1.27;;;;;;;;;;5012973;28;20022;-64
2023/09/02 12:46:37;;;;;;;1.35;1.35;;;;;;;;;;4995119;28;20658;-64
2023/09/02 12:49:02;;;;;;;1.50;1.40;;;;;;;;;;5014813;28;20109;-64
2023/09/02 12:51:28;;;;;;;1.10;1.10;;;;;;;;;;5016877;28;20056;-64
2023/09/02 12:53:53;;;;;;;1.60;1.50;;;;;;;;;;5016746;28;20026;-64
2023/09/02 12:56:19;;;;;;;1.20;1.20;;;;;;;;;;5016668;28;20010;-64
2023/09/02 12:58:45;;;;;;;1.45;1.23;;;;;;;;;;5016675;28;20084;-64
2023/09/02 13:01:10;;;;;;;2.00;1.90;;;;;;;;;;5016908;28;20026;-64
2023/09/02 13:03:35;;;;;;;2.50;2.40;;;;;;;;;;5016652;28;20033;-64
2023/09/02 13:06:01;;;;;;;2.65;2.45;;;;;;;;;;5016077;28;20061;-65
2023/09/02 13:08:26;;;;;;;2.40;2.25;;;;;;;;;;5016823;28;20055;-64
2023/09/02 13:10:52;;;;;;;2.20;2.10;;;;;;;;;;5016738;28;20490;-64
2023/09/02 13:13:18;;;;;;;2.53;2.33;;;;;;;;;;5015647;28;20374;-64
2023/09/02 13:15:43;;;;;;;2.33;1.90;;;;;;;;;;5016468;28;20060;-64
2023/09/02 13:18:09;;;;;;;2.08;1.98;;;;;;;;;;5016826;28;20022;-64
2023/09/02 13:20:35;;;;;;;2.05;1.95;;;;;;;;;;5016542;28;20029;-64
2023/09/02 13:23:03;;;;;;;1.98;1.88;;;;;;;;;;5016193;28;20037;-65
2023/09/02 13:25:28;;;;;;;1.92;1.83;;;;;;;;;;5016419;28;20040;-65
2023/09/02 13:27:54;;;;;;;1.85;1.75;;;;;;;;;;5016043;28;20109;-64
2023/09/02 13:30:22;;;;;;;2.00;1.90;;;;;;;;;;5016496;28;20022;-64
2023/09/02 13:32:48;;;;;;;1.55;1.45;;;;;;;;;;5016465;28;20017;-65
2023/09/02 13:35:15;;;;;;;1.77;1.67;;;;;;;;;;5016476;28;20417;-64
2023/09/02 13:37:45;;;;;;;1.30;1.20;;;;;;;;;;5015943;28;20071;-64
2023/09/02 13:40:18;;;;;;;1.50;1.40;;;;;;;;;;5016015;28;20048;-65
2023/09/02 13:42:44;;;;;;;2.05;1.35;;;;;;;;;;5015947;28;20026;-64
2023/09/02 13:45:29;;;;;;;1.60;1.50;;;;;;;;;;5016159;28;20498;-64
2023/09/02 13:47:54;;;;;;;1.70;1.60;;;;;;;;;;5015501;28;20054;-64
2023/09/02 13:50:20;;;;;;;1.60;1.50;;;;;;;;;;4998446;28;20445;-64
2023/09/02 13:52:50;;;;;;;1.52;1.42;;;;;;;;;;5016221;28;20057;-64
2023/09/02 13:55:19;;;;;;;1.48;1.38;;;;;;;;;;5015804;28;20359;-66
2023/09/02 13:57:45;;;;;;;1.48;1.30;;;;;;;;;;5015944;28;20026;-65
2023/09/02 14:00:20;;;;;;;1.45;1.35;;;;;;;;;;5014824;28;20026;-66
2023/09/02 14:02:46;;;;;;;1.90;1.50;;;;;;;;;;5015552;28;20033;-62
2023/09/02 14:05:14;;;;;;;1.48;1.38;;;;;;;;;;5014969;28;20026;-67
2023/09/02 14:07:43;;;;;;;1.70;1.60;;;;;;;;;;4997307;28;20037;-66
2023/09/02 14:10:11;;;;;;;2.63;1.60;;;;;;;;;;5015456;28;20068;-66
2023/09/02 14:12:36;;;;;;;1.60;1.50;;;;;;;;;;5015830;28;20113;-72
2023/09/02 14:15:03;;;;;;;2.63;1.55;;;;;;;;;;5016199;28;20026;-72
2023/09/02 14:17:28;;;;;;;2.05;1.80;;;;;;;;;;5016382;28;20041;-72
2023/09/02 14:19:56;;;;;;;1.90;1.80;;;;;;;;;;4998322;28;20033;-73
2023/09/02 14:22:22;;;;;;;1.73;1.55;;;;;;;;;;4998202;28;20449;-73
2023/09/02 14:24:47;;;;;;;1.73;1.63;;;;;;;;;;4998475;28;20034;-73
2023/09/02 14:27:17;;;;;;;1.52;1.42;;;;;;;;;;4998040;28;20108;-73
2023/09/02 14:29:43;;;;;;;;;;;;;;;;;;5016234;28;20077;-73
2023/09/02 14:32:08;;;;;;;2.47;1.63;;;;;;;;;;5015519;28;19952;-73
2023/09/02 14:34:34;;;;;;;1.52;1.42;;;;;;;;;;5015373;28;20726;-73
2023/09/02 14:37:01;;;;;;;1.90;1.48;;;;;;;;;;5015223;28;20109;-73
2023/09/02 14:39:26;;;;;;;1.45;1.45;;;;;;;;;;5015069;28;20058;-73
2023/09/02 14:41:52;;;;;;;1.38;1.38;;;;;;;;;;5012906;28;20500;-72